Terminal Aerodrome Forecast
Issued by NWS Sterling, VA

Current Version | Previous Version | Graphics & Text | Print | Product List | Glossary On
Versions: 1 2 3 4 5 6 7 8 9 10 11 12 13 14 15 16 17 18 19 20 21 22 23
000
FTUS41 KLWX 182300
TAFIAD
TAF
KIAD 182340Z 1900/2006 31010KT P6SM BKN050
     FM191400 31012G22KT P6SM FEW050
     FM192300 31010KT P6SM FEW250
     FM200000 31005KT P6SM FEW250=

USA.gov is the U.S. government's official web portal to all federal, state and local government web resources and services.